sensor_id;sensor_type;location;lat;lon;timestamp;P1;durP1;ratioP1;P2;durP2;ratioP2
75971;SDS011;64651;47.540;19.088;2023-09-19T00:03:49;13.23;;;7.00;;
75971;SDS011;64651;47.540;19.088;2023-09-19T00:08:51;14.50;;;7.93;;
75971;SDS011;64651;47.540;19.088;2023-09-19T00:13:54;16.05;;;7.60;;
75971;SDS011;64651;47.540;19.088;2023-09-19T00:18:57;24.02;;;11.63;;
75971;SDS011;64651;47.540;19.088;2023-09-19T00:23:59;15.97;;;8.10;;
75971;SDS011;64651;47.540;19.088;2023-09-19T00:29:02;16.05;;;7.95;;
75971;SDS011;64651;47.540;19.088;2023-09-19T00:34:05;13.40;;;7.10;;
75971;SDS011;64651;47.540;19.088;2023-09-19T00:39:12;12.25;;;7.40;;
75971;SDS011;64651;47.540;19.088;2023-09-19T00:44:14;14.55;;;7.57;;
75971;SDS011;64651;47.540;19.088;2023-09-19T00:49:17;12.27;;;7.60;;
75971;SDS011;64651;47.540;19.088;2023-09-19T00:54:22;12.40;;;7.72;;
75971;SDS011;64651;47.540;19.088;2023-09-19T00:59:24;14.33;;;7.80;;
75971;SDS011;64651;47.540;19.088;2023-09-19T01:04:26;14.32;;;7.07;;
75971;SDS011;64651;47.540;19.088;2023-09-19T01:09:29;13.80;;;8.18;;
75971;SDS011;64651;47.540;19.088;2023-09-19T01:14:38;13.57;;;8.53;;
75971;SDS011;64651;47.540;19.088;2023-09-19T01:19:48;14.40;;;8.15;;
75971;SDS011;64651;47.540;19.088;2023-09-19T01:25:19;21.03;;;8.27;;
75971;SDS011;64651;47.540;19.088;2023-09-19T01:30:24;13.05;;;7.90;;
75971;SDS011;64651;47.540;19.088;2023-09-19T01:35:29;16.30;;;8.68;;
75971;SDS011;64651;47.540;19.088;2023-09-19T01:40:32;15.87;;;8.00;;
75971;SDS011;64651;47.540;19.088;2023-09-19T01:51:20;13.00;;;8.40;;
75971;SDS011;64651;47.540;19.088;2023-09-19T01:56:34;15.77;;;8.70;;
75971;SDS011;64651;47.540;19.088;2023-09-19T02:01:42;14.52;;;8.35;;
75971;SDS011;64651;47.540;19.088;2023-09-19T02:06:46;14.67;;;8.80;;
75971;SDS011;64651;47.540;19.088;2023-09-19T02:11:49;14.15;;;8.50;;
75971;SDS011;64651;47.540;19.088;2023-09-19T02:16:51;16.07;;;8.93;;
75971;SDS011;64651;47.540;19.088;2023-09-19T02:21:53;16.25;;;9.25;;
75971;SDS011;64651;47.540;19.088;2023-09-19T02:26:55;13.98;;;8.82;;
75971;SDS011;64651;47.540;19.088;2023-09-19T02:32:01;19.13;;;8.97;;
75971;SDS011;64651;47.540;19.088;2023-09-19T02:37:05;18.25;;;9.80;;
75971;SDS011;64651;47.540;19.088;2023-09-19T02:42:08;15.77;;;9.30;;
75971;SDS011;64651;47.540;19.088;2023-09-19T02:47:10;15.80;;;9.73;;
75971;SDS011;64651;47.540;19.088;2023-09-19T02:52:13;16.33;;;9.80;;
75971;SDS011;64651;47.540;19.088;2023-09-19T02:57:16;16.37;;;9.27;;
75971;SDS011;64651;47.540;19.088;2023-09-19T03:02:19;17.10;;;9.75;;
75971;SDS011;64651;47.540;19.088;2023-09-19T03:07:22;16.67;;;9.47;;
75971;SDS011;64651;47.540;19.088;2023-09-19T03:12:24;16.80;;;9.38;;
75971;SDS011;64651;47.540;19.088;2023-09-19T03:17:27;17.67;;;8.82;;
75971;SDS011;64651;47.540;19.088;2023-09-19T03:22:29;15.40;;;9.27;;
75971;SDS011;64651;47.540;19.088;2023-09-19T03:27:31;16.20;;;9.40;;
75971;SDS011;64651;47.540;19.088;2023-09-19T03:32:34;15.70;;;9.10;;
75971;SDS011;64651;47.540;19.088;2023-09-19T03:37:37;18.12;;;9.85;;
75971;SDS011;64651;47.540;19.088;2023-09-19T03:42:40;17.08;;;9.82;;
75971;SDS011;64651;47.540;19.088;2023-09-19T03:47:43;16.87;;;9.63;;
75971;SDS011;64651;47.540;19.088;2023-09-19T03:52:46;16.05;;;10.20;;
75971;SDS011;64651;47.540;19.088;2023-09-19T03:57:48;20.70;;;10.70;;
75971;SDS011;64651;47.540;19.088;2023-09-19T04:02:51;20.88;;;10.68;;
75971;SDS011;64651;47.540;19.088;2023-09-19T04:07:54;17.30;;;9.90;;
75971;SDS011;64651;47.540;19.088;2023-09-19T04:12:56;17.53;;;9.93;;
75971;SDS011;64651;47.540;19.088;2023-09-19T04:17:58;16.45;;;9.27;;
75971;SDS011;64651;47.540;19.088;2023-09-19T04:23:01;14.87;;;8.60;;
75971;SDS011;64651;47.540;19.088;2023-09-19T04:28:04;13.38;;;7.82;;
75971;SDS011;64651;47.540;19.088;2023-09-19T04:33:08;14.25;;;8.02;;
75971;SDS011;64651;47.540;19.088;2023-09-19T04:38:10;12.77;;;6.20;;
75971;SDS011;64651;47.540;19.088;2023-09-19T04:43:13;11.35;;;5.95;;
75971;SDS011;64651;47.540;19.088;2023-09-19T04:48:17;10.57;;;4.30;;
75971;SDS011;64651;47.540;19.088;2023-09-19T04:53:19;11.43;;;3.90;;
75971;SDS011;64651;47.540;19.088;2023-09-19T04:58:23;10.13;;;3.42;;
75971;SDS011;64651;47.540;19.088;2023-09-19T05:03:25;9.60;;;3.27;;
75971;SDS011;64651;47.540;19.088;2023-09-19T05:08:28;6.50;;;3.08;;
75971;SDS011;64651;47.540;19.088;2023-09-19T05:13:30;7.50;;;3.00;;
75971;SDS011;64651;47.540;19.088;2023-09-19T05:18:33;6.43;;;2.33;;
75971;SDS011;64651;47.540;19.088;2023-09-19T05:23:35;7.30;;;1.98;;
75971;SDS011;64651;47.540;19.088;2023-09-19T05:28:39;5.30;;;2.00;;
75971;SDS011;64651;47.540;19.088;2023-09-19T05:33:41;7.28;;;1.98;;
75971;SDS011;64651;47.540;19.088;2023-09-19T05:38:44;6.67;;;1.80;;
75971;SDS011;64651;47.540;19.088;2023-09-19T05:43:48;5.62;;;1.62;;
75971;SDS011;64651;47.540;19.088;2023-09-19T05:48:52;5.30;;;1.50;;
75971;SDS011;64651;47.540;19.088;2023-09-19T05:53:54;4.60;;;1.60;;
75971;SDS011;64651;47.540;19.088;2023-09-19T05:58:56;3.95;;;1.55;;
75971;SDS011;64651;47.540;19.088;2023-09-19T06:03:59;4.20;;;1.30;;
75971;SDS011;64651;47.540;19.088;2023-09-19T06:09:02;4.90;;;1.40;;
75971;SDS011;64651;47.540;19.088;2023-09-19T06:14:07;5.30;;;1.77;;
75971;SDS011;64651;47.540;19.088;2023-09-19T06:19:09;8.73;;;1.80;;
75971;SDS011;64651;47.540;19.088;2023-09-19T06:24:11;4.75;;;2.08;;
75971;SDS011;64651;47.540;19.088;2023-09-19T06:29:14;4.20;;;1.60;;
75971;SDS011;64651;47.540;19.088;2023-09-19T06:34:16;4.25;;;1.50;;
75971;SDS011;64651;47.540;19.088;2023-09-19T06:39:20;4.35;;;1.50;;
75971;SDS011;64651;47.540;19.088;2023-09-19T06:44:24;3.93;;;1.30;;
75971;SDS011;64651;47.540;19.088;2023-09-19T06:49:33;5.37;;;1.30;;
75971;SDS011;64651;47.540;19.088;2023-09-19T06:54:35;4.53;;;1.20;;
75971;SDS011;64651;47.540;19.088;2023-09-19T06:59:37;6.53;;;1.50;;
75971;SDS011;64651;47.540;19.088;2023-09-19T07:04:40;3.95;;;1.08;;
75971;SDS011;64651;47.540;19.088;2023-09-19T07:09:42;3.57;;;1.40;;
75971;SDS011;64651;47.540;19.088;2023-09-19T07:14:45;4.22;;;1.40;;
75971;SDS011;64651;47.540;19.088;2023-09-19T07:19:47;4.23;;;1.40;;
75971;SDS011;64651;47.540;19.088;2023-09-19T07:24:51;4.00;;;1.33;;
75971;SDS011;64651;47.540;19.088;2023-09-19T07:29:53;5.68;;;1.20;;
75971;SDS011;64651;47.540;19.088;2023-09-19T07:34:56;5.33;;;1.50;;
75971;SDS011;64651;47.540;19.088;2023-09-19T07:40:07;5.85;;;1.48;;
75971;SDS011;64651;47.540;19.088;2023-09-19T07:45:13;6.70;;;1.50;;
75971;SDS011;64651;47.540;19.088;2023-09-19T07:50:16;4.70;;;1.40;;
75971;SDS011;64651;47.540;19.088;2023-09-19T07:55:20;4.90;;;1.37;;
75971;SDS011;64651;47.540;19.088;2023-09-19T08:00:26;5.67;;;1.50;;
75971;SDS011;64651;47.540;19.088;2023-09-19T08:05:29;4.78;;;1.70;;
75971;SDS011;64651;47.540;19.088;2023-09-19T08:10:31;5.47;;;1.70;;
75971;SDS011;64651;47.540;19.088;2023-09-19T08:15:40;4.62;;;1.55;;
75971;SDS011;64651;47.540;19.088;2023-09-19T08:20:52;5.35;;;1.60;;
75971;SDS011;64651;47.540;19.088;2023-09-19T08:25:58;5.20;;;1.50;;
75971;SDS011;64651;47.540;19.088;2023-09-19T08:31:04;5.75;;;1.58;;
75971;SDS011;64651;47.540;19.088;2023-09-19T08:36:07;6.53;;;1.83;;
75971;SDS011;64651;47.540;19.088;2023-09-19T08:41:11;6.50;;;1.77;;
75971;SDS011;64651;47.540;19.088;2023-09-19T08:46:17;6.53;;;1.92;;
75971;SDS011;64651;47.540;19.088;2023-09-19T08:51:26;6.47;;;1.90;;
75971;SDS011;64651;47.540;19.088;2023-09-19T08:56:32;6.35;;;1.90;;
75971;SDS011;64651;47.540;19.088;2023-09-19T09:01:35;6.17;;;1.60;;
75971;SDS011;64651;47.540;19.088;2023-09-19T09:06:39;5.37;;;1.62;;
75971;SDS011;64651;47.540;19.088;2023-09-19T09:11:45;6.62;;;1.40;;
75971;SDS011;64651;47.540;19.088;2023-09-19T09:16:49;4.13;;;1.20;;
75971;SDS011;64651;47.540;19.088;2023-09-19T09:21:52;5.05;;;1.77;;
75971;SDS011;64651;47.540;19.088;2023-09-19T09:26:54;5.87;;;1.67;;
75971;SDS011;64651;47.540;19.088;2023-09-19T09:31:58;5.50;;;1.42;;
75971;SDS011;64651;47.540;19.088;2023-09-19T09:37:21;4.90;;;1.48;;
75971;SDS011;64651;47.540;19.088;2023-09-19T09:47:41;5.25;;;1.70;;
75971;SDS011;64651;47.540;19.088;2023-09-19T09:52:51;6.03;;;1.73;;
75971;SDS011;64651;47.540;19.088;2023-09-19T09:58:15;5.00;;;1.60;;
75971;SDS011;64651;47.540;19.088;2023-09-19T10:03:20;5.95;;;1.62;;
75971;SDS011;64651;47.540;19.088;2023-09-19T10:08:23;6.17;;;2.00;;
75971;SDS011;64651;47.540;19.088;2023-09-19T10:13:28;5.80;;;1.90;;
75971;SDS011;64651;47.540;19.088;2023-09-19T10:18:33;5.10;;;1.87;;
75971;SDS011;64651;47.540;19.088;2023-09-19T10:23:38;5.60;;;1.87;;
75971;SDS011;64651;47.540;19.088;2023-09-19T10:28:46;5.70;;;2.22;;
75971;SDS011;64651;47.540;19.088;2023-09-19T10:33:49;5.60;;;2.50;;
75971;SDS011;64651;47.540;19.088;2023-09-19T10:38:52;7.07;;;2.30;;
75971;SDS011;64651;47.540;19.088;2023-09-19T10:44:03;5.67;;;2.53;;
75971;SDS011;64651;47.540;19.088;2023-09-19T10:49:10;6.07;;;2.80;;
75971;SDS011;64651;47.540;19.088;2023-09-19T10:54:13;8.02;;;3.12;;
75971;SDS011;64651;47.540;19.088;2023-09-19T10:59:21;6.10;;;2.60;;
75971;SDS011;64651;47.540;19.088;2023-09-19T11:15:03;6.53;;;2.65;;
75971;SDS011;64651;47.540;19.088;2023-09-19T11:30:41;6.32;;;2.45;;
75971;SDS011;64651;47.540;19.088;2023-09-19T11:35:58;6.53;;;3.43;;
75971;SDS011;64651;47.540;19.088;2023-09-19T11:46:22;7.05;;;3.92;;
75971;SDS011;64651;47.540;19.088;2023-09-19T11:51:25;6.53;;;4.57;;
75971;SDS011;64651;47.540;19.088;2023-09-19T11:56:31;7.97;;;4.37;;
75971;SDS011;64651;47.540;19.088;2023-09-19T12:01:43;6.77;;;4.37;;
75971;SDS011;64651;47.540;19.088;2023-09-19T12:06:56;7.75;;;4.80;;
75971;SDS011;64651;47.540;19.088;2023-09-19T12:11:59;6.47;;;4.57;;
75971;SDS011;64651;47.540;19.088;2023-09-19T12:17:02;7.87;;;4.63;;
75971;SDS011;64651;47.540;19.088;2023-09-19T12:22:05;8.68;;;4.97;;
75971;SDS011;64651;47.540;19.088;2023-09-19T12:27:08;7.40;;;4.57;;
75971;SDS011;64651;47.540;19.088;2023-09-19T12:32:11;7.22;;;4.05;;
75971;SDS011;64651;47.540;19.088;2023-09-19T12:37:15;6.93;;;4.25;;
75971;SDS011;64651;47.540;19.088;2023-09-19T12:42:23;7.53;;;4.10;;
75971;SDS011;64651;47.540;19.088;2023-09-19T12:47:30;8.63;;;4.90;;
75971;SDS011;64651;47.540;19.088;2023-09-19T12:52:36;6.97;;;4.70;;
75971;SDS011;64651;47.540;19.088;2023-09-19T12:57:40;7.60;;;4.90;;
75971;SDS011;64651;47.540;19.088;2023-09-19T13:08:42;6.97;;;5.13;;
75971;SDS011;64651;47.540;19.088;2023-09-19T13:18:55;8.73;;;5.60;;
75971;SDS011;64651;47.540;19.088;2023-09-19T13:29:28;7.45;;;5.37;;
75971;SDS011;64651;47.540;19.088;2023-09-19T13:34:30;8.17;;;6.93;;
75971;SDS011;64651;47.540;19.088;2023-09-19T13:39:33;8.05;;;6.43;;
75971;SDS011;64651;47.540;19.088;2023-09-19T13:44:35;8.57;;;6.37;;
75971;SDS011;64651;47.540;19.088;2023-09-19T13:49:37;8.13;;;5.95;;
75971;SDS011;64651;47.540;19.088;2023-09-19T13:54:40;7.60;;;5.95;;
75971;SDS011;64651;47.540;19.088;2023-09-19T13:59:43;7.67;;;6.27;;
75971;SDS011;64651;47.540;19.088;2023-09-19T14:04:45;8.88;;;6.18;;
75971;SDS011;64651;47.540;19.088;2023-09-19T14:09:47;8.43;;;6.23;;
75971;SDS011;64651;47.540;19.088;2023-09-19T14:14:49;8.77;;;6.15;;
75971;SDS011;64651;47.540;19.088;2023-09-19T14:19:52;8.35;;;5.25;;
75971;SDS011;64651;47.540;19.088;2023-09-19T14:24:55;7.87;;;6.17;;
75971;SDS011;64651;47.540;19.088;2023-09-19T14:29:57;7.25;;;5.72;;
75971;SDS011;64651;47.540;19.088;2023-09-19T14:35:00;8.70;;;6.37;;
75971;SDS011;64651;47.540;19.088;2023-09-19T14:40:03;7.82;;;5.22;;
75971;SDS011;64651;47.540;19.088;2023-09-19T14:45:10;7.12;;;5.65;;
75971;SDS011;64651;47.540;19.088;2023-09-19T14:50:13;8.30;;;5.13;;
75971;SDS011;64651;47.540;19.088;2023-09-19T14:55:21;8.52;;;5.43;;
75971;SDS011;64651;47.540;19.088;2023-09-19T15:00:24;8.80;;;5.83;;
75971;SDS011;64651;47.540;19.088;2023-09-19T15:05:27;6.95;;;4.55;;
75971;SDS011;64651;47.540;19.088;2023-09-19T15:10:32;8.63;;;4.80;;
75971;SDS011;64651;47.540;19.088;2023-09-19T15:15:34;7.17;;;4.67;;
75971;SDS011;64651;47.540;19.088;2023-09-19T15:20:40;7.22;;;4.62;;
75971;SDS011;64651;47.540;19.088;2023-09-19T15:25:48;8.20;;;3.93;;
75971;SDS011;64651;47.540;19.088;2023-09-19T15:30:59;7.30;;;4.12;;
75971;SDS011;64651;47.540;19.088;2023-09-19T15:36:09;7.03;;;4.53;;
75971;SDS011;64651;47.540;19.088;2023-09-19T15:41:13;6.20;;;3.50;;
75971;SDS011;64651;47.540;19.088;2023-09-19T15:46:15;7.65;;;4.60;;
75971;SDS011;64651;47.540;19.088;2023-09-19T15:51:17;6.67;;;3.60;;
75971;SDS011;64651;47.540;19.088;2023-09-19T15:56:21;7.28;;;3.28;;
75971;SDS011;64651;47.540;19.088;2023-09-19T16:01:25;7.80;;;3.25;;
75971;SDS011;64651;47.540;19.088;2023-09-19T16:06:28;6.10;;;2.67;;
75971;SDS011;64651;47.540;19.088;2023-09-19T16:11:32;7.40;;;3.78;;
75971;SDS011;64651;47.540;19.088;2023-09-19T16:16:37;6.47;;;3.37;;
75971;SDS011;64651;47.540;19.088;2023-09-19T16:21:40;5.87;;;2.97;;
75971;SDS011;64651;47.540;19.088;2023-09-19T16:26:42;7.90;;;2.60;;
75971;SDS011;64651;47.540;19.088;2023-09-19T16:31:45;6.23;;;2.53;;
75971;SDS011;64651;47.540;19.088;2023-09-19T16:36:47;8.80;;;3.00;;
75971;SDS011;64651;47.540;19.088;2023-09-19T16:41:49;6.70;;;3.10;;
75971;SDS011;64651;47.540;19.088;2023-09-19T16:46:53;7.72;;;2.95;;
75971;SDS011;64651;47.540;19.088;2023-09-19T16:51:55;9.05;;;2.87;;
75971;SDS011;64651;47.540;19.088;2023-09-19T16:56:58;9.53;;;2.87;;
75971;SDS011;64651;47.540;19.088;2023-09-19T17:02:00;7.30;;;2.80;;
75971;SDS011;64651;47.540;19.088;2023-09-19T17:07:03;7.73;;;2.70;;
75971;SDS011;64651;47.540;19.088;2023-09-19T17:12:05;6.50;;;2.92;;
75971;SDS011;64651;47.540;19.088;2023-09-19T17:17:08;9.73;;;3.37;;
75971;SDS011;64651;47.540;19.088;2023-09-19T17:22:13;7.97;;;3.20;;
75971;SDS011;64651;47.540;19.088;2023-09-19T17:27:16;7.45;;;2.90;;
75971;SDS011;64651;47.540;19.088;2023-09-19T17:32:20;8.73;;;4.13;;
75971;SDS011;64651;47.540;19.088;2023-09-19T17:37:23;8.43;;;3.50;;
75971;SDS011;64651;47.540;19.088;2023-09-19T17:42:25;6.62;;;3.20;;
75971;SDS011;64651;47.540;19.088;2023-09-19T17:47:28;7.20;;;3.27;;
75971;SDS011;64651;47.540;19.088;2023-09-19T17:52:30;9.07;;;3.12;;
75971;SDS011;64651;47.540;19.088;2023-09-19T17:57:33;6.73;;;2.90;;
75971;SDS011;64651;47.540;19.088;2023-09-19T18:02:37;8.65;;;3.10;;
75971;SDS011;64651;47.540;19.088;2023-09-19T18:07:42;6.87;;;3.00;;
75971;SDS011;64651;47.540;19.088;2023-09-19T18:12:45;9.37;;;4.10;;
75971;SDS011;64651;47.540;19.088;2023-09-19T18:17:49;8.25;;;3.85;;
75971;SDS011;64651;47.540;19.088;2023-09-19T18:22:51;7.27;;;3.37;;
75971;SDS011;64651;47.540;19.088;2023-09-19T18:27:55;6.90;;;2.90;;
75971;SDS011;64651;47.540;19.088;2023-09-19T18:32:59;8.48;;;3.30;;
75971;SDS011;64651;47.540;19.088;2023-09-19T18:38:02;9.10;;;3.40;;
75971;SDS011;64651;47.540;19.088;2023-09-19T18:43:05;10.55;;;4.30;;
75971;SDS011;64651;47.540;19.088;2023-09-19T18:48:07;9.43;;;3.93;;
75971;SDS011;64651;47.540;19.088;2023-09-19T18:53:10;9.10;;;4.07;;
75971;SDS011;64651;47.540;19.088;2023-09-19T18:58:12;8.73;;;3.75;;
75971;SDS011;64651;47.540;19.088;2023-09-19T19:03:14;7.83;;;3.90;;
75971;SDS011;64651;47.540;19.088;2023-09-19T19:08:17;8.57;;;4.53;;
75971;SDS011;64651;47.540;19.088;2023-09-19T19:13:20;8.90;;;4.20;;
75971;SDS011;64651;47.540;19.088;2023-09-19T19:18:23;9.02;;;4.10;;
75971;SDS011;64651;47.540;19.088;2023-09-19T19:23:30;10.15;;;4.22;;
75971;SDS011;64651;47.540;19.088;2023-09-19T19:28:33;11.37;;;4.73;;
75971;SDS011;64651;47.540;19.088;2023-09-19T19:33:41;10.18;;;4.50;;
75971;SDS011;64651;47.540;19.088;2023-09-19T19:38:45;10.03;;;4.03;;
75971;SDS011;64651;47.540;19.088;2023-09-19T19:43:47;11.52;;;4.55;;
75971;SDS011;64651;47.540;19.088;2023-09-19T19:48:51;10.05;;;5.10;;
75971;SDS011;64651;47.540;19.088;2023-09-19T19:53:54;9.17;;;4.53;;
75971;SDS011;64651;47.540;19.088;2023-09-19T19:58:57;11.20;;;5.43;;
75971;SDS011;64651;47.540;19.088;2023-09-19T20:04:00;11.03;;;5.27;;
75971;SDS011;64651;47.540;19.088;2023-09-19T20:09:03;11.77;;;4.72;;
75971;SDS011;64651;47.540;19.088;2023-09-19T20:14:07;8.77;;;4.50;;
75971;SDS011;64651;47.540;19.088;2023-09-19T20:19:09;10.80;;;4.60;;
75971;SDS011;64651;47.540;19.088;2023-09-19T20:24:12;9.82;;;4.65;;
75971;SDS011;64651;47.540;19.088;2023-09-19T20:29:22;11.03;;;4.93;;
75971;SDS011;64651;47.540;19.088;2023-09-19T20:34:24;9.32;;;4.30;;
75971;SDS011;64651;47.540;19.088;2023-09-19T20:39:28;10.65;;;5.00;;
75971;SDS011;64651;47.540;19.088;2023-09-19T20:44:30;9.80;;;3.97;;
75971;SDS011;64651;47.540;19.088;2023-09-19T20:49:33;9.50;;;4.32;;
75971;SDS011;64651;47.540;19.088;2023-09-19T20:54:35;11.83;;;4.40;;
75971;SDS011;64651;47.540;19.088;2023-09-19T20:59:37;10.02;;;4.53;;
75971;SDS011;64651;47.540;19.088;2023-09-19T21:04:40;9.50;;;4.03;;
75971;SDS011;64651;47.540;19.088;2023-09-19T21:09:43;9.53;;;4.60;;
75971;SDS011;64651;47.540;19.088;2023-09-19T21:14:45;9.45;;;4.97;;
75971;SDS011;64651;47.540;19.088;2023-09-19T21:19:48;9.00;;;4.70;;
75971;SDS011;64651;47.540;19.088;2023-09-19T21:24:50;8.80;;;4.43;;
75971;SDS011;64651;47.540;19.088;2023-09-19T21:29:55;8.45;;;4.03;;
75971;SDS011;64651;47.540;19.088;2023-09-19T21:34:57;8.77;;;4.40;;
75971;SDS011;64651;47.540;19.088;2023-09-19T21:40:03;10.00;;;5.00;;
75971;SDS011;64651;47.540;19.088;2023-09-19T21:45:06;15.03;;;4.80;;
75971;SDS011;64651;47.540;19.088;2023-09-19T21:50:09;11.00;;;4.82;;
75971;SDS011;64651;47.540;19.088;2023-09-19T21:55:12;9.43;;;4.95;;
75971;SDS011;64651;47.540;19.088;2023-09-19T22:00:14;11.07;;;4.70;;
75971;SDS011;64651;47.540;19.088;2023-09-19T22:05:33;14.60;;;7.20;;
75971;SDS011;64651;47.540;19.088;2023-09-19T22:10:42;11.87;;;5.73;;
75971;SDS011;64651;47.540;19.088;2023-09-19T22:15:49;9.93;;;5.22;;
75971;SDS011;64651;47.540;19.088;2023-09-19T22:20:56;9.35;;;5.10;;
75971;SDS011;64651;47.540;19.088;2023-09-19T22:26:16;10.70;;;5.33;;
75971;SDS011;64651;47.540;19.088;2023-09-19T22:31:26;9.23;;;4.90;;
75971;SDS011;64651;47.540;19.088;2023-09-19T22:36:38;10.40;;;5.30;;
75971;SDS011;64651;47.540;19.088;2023-09-19T22:41:44;9.80;;;4.90;;
75971;SDS011;64651;47.540;19.088;2023-09-19T22:46:47;11.23;;;5.30;;
75971;SDS011;64651;47.540;19.088;2023-09-19T22:51:51;10.33;;;5.50;;
75971;SDS011;64651;47.540;19.088;2023-09-19T22:56:54;10.48;;;4.97;;
75971;SDS011;64651;47.540;19.088;2023-09-19T23:01:57;12.60;;;4.83;;
75971;SDS011;64651;47.540;19.088;2023-09-19T23:07:01;10.88;;;5.00;;
75971;SDS011;64651;47.540;19.088;2023-09-19T23:12:07;9.82;;;5.05;;
75971;SDS011;64651;47.540;19.088;2023-09-19T23:17:18;11.17;;;4.73;;
75971;SDS011;64651;47.540;19.088;2023-09-19T23:22:24;11.90;;;5.50;;
75971;SDS011;64651;47.540;19.088;2023-09-19T23:27:29;9.43;;;5.30;;
75971;SDS011;64651;47.540;19.088;2023-09-19T23:32:38;10.60;;;4.90;;
75971;SDS011;64651;47.540;19.088;2023-09-19T23:37:40;10.77;;;5.37;;
75971;SDS011;64651;47.540;19.088;2023-09-19T23:42:42;10.27;;;5.37;;
75971;SDS011;64651;47.540;19.088;2023-09-19T23:47:46;9.90;;;5.35;;
75971;SDS011;64651;47.540;19.088;2023-09-19T23:52:49;13.50;;;5.40;;
75971;SDS011;64651;47.540;19.088;2023-09-19T23:57:51;10.63;;;5.50;;
